sensor_id;sensor_type;location;lat;lon;timestamp;temperature;humidity
18281;DHT22;9266;51.132;17.062;2022-08-11T02:46:15;14.00;99.90
18281;DHT22;9266;51.132;17.062;2022-08-11T02:52:02;13.80;99.90
18281;DHT22;9266;51.132;17.062;2022-08-11T03:02:39;13.50;1.00
18281;DHT22;9266;51.132;17.062;2022-08-11T03:31:59;13.40;99.90
18281;DHT22;9266;51.132;17.062;2022-08-11T04:56:28;21.40;1.00
18281;DHT22;9266;51.132;17.062;2022-08-11T09:11:56;27.60;1.00
18281;DHT22;9266;51.132;17.062;2022-08-11T09:14:31;28.20;1.00
18281;DHT22;9266;51.132;17.062;2022-08-11T09:17:13;27.50;1.00
18281;DHT22;9266;51.132;17.062;2022-08-11T09:19:40;27.90;1.00
18281;DHT22;9266;51.132;17.062;2022-08-11T09:22:07;27.60;1.00
18281;DHT22;9266;51.132;17.062;2022-08-11T09:24:53;29.60;1.00
18281;DHT22;9266;51.132;17.062;2022-08-11T09:27:38;27.30;1.00
18281;DHT22;9266;51.132;17.062;2022-08-11T09:30:08;27.00;1.00
18281;DHT22;9266;51.132;17.062;2022-08-11T09:32:37;26.60;1.00
18281;DHT22;9266;51.132;17.062;2022-08-11T09:35:07;26.40;1.00
18281;DHT22;9266;51.132;17.062;2022-08-11T09:37:35;26.00;1.00
18281;DHT22;9266;51.132;17.062;2022-08-11T09:40:20;26.30;1.00
18281;DHT22;9266;51.132;17.062;2022-08-11T09:43:00;26.50;1.00
18281;DHT22;9266;51.132;17.062;2022-08-11T09:45:49;26.80;1.00
18281;DHT22;9266;51.132;17.062;2022-08-11T09:48:17;26.80;1.00
18281;DHT22;9266;51.132;17.062;2022-08-11T09:50:45;26.80;1.00
18281;DHT22;9266;51.132;17.062;2022-08-11T09:53:14;26.60;99.90
18281;DHT22;9266;51.132;17.062;2022-08-11T09:55:43;26.60;99.90
18281;DHT22;9266;51.132;17.062;2022-08-11T09:58:10;26.60;99.90
18281;DHT22;9266;51.132;17.062;2022-08-11T10:00:41;26.70;99.90
18281;DHT22;9266;51.132;17.062;2022-08-11T10:03:12;26.70;99.90
18281;DHT22;9266;51.132;17.062;2022-08-11T10:05:43;26.60;99.90
18281;DHT22;9266;51.132;17.062;2022-08-11T10:08:29;26.00;99.90
18281;DHT22;9266;51.132;17.062;2022-08-11T10:10:58;25.90;99.90
18281;DHT22;9266;51.132;17.062;2022-08-11T10:13:29;25.90;99.90
18281;DHT22;9266;51.132;17.062;2022-08-11T10:16:01;25.50;99.90
18281;DHT22;9266;51.132;17.062;2022-08-11T10:18:34;25.30;99.90
18281;DHT22;9266;51.132;17.062;2022-08-11T10:21:21;25.40;99.90
18281;DHT22;9266;51.132;17.062;2022-08-11T10:23:51;25.60;99.90
18281;DHT22;9266;51.132;17.062;2022-08-11T10:26:37;25.50;99.90
18281;DHT22;9266;51.132;17.062;2022-08-11T10:29:20;25.80;99.90
18281;DHT22;9266;51.132;17.062;2022-08-11T10:32:05;25.70;99.90
18281;DHT22;9266;51.132;17.062;2022-08-11T10:34:53;26.10;99.90
18281;DHT22;9266;51.132;17.062;2022-08-11T10:37:22;26.10;99.90
18281;DHT22;9266;51.132;17.062;2022-08-11T10:39:51;26.00;99.90
18281;DHT22;9266;51.132;17.062;2022-08-11T10:42:21;26.40;99.90
18281;DHT22;9266;51.132;17.062;2022-08-11T10:45:07;26.30;99.90
18281;DHT22;9266;51.132;17.062;2022-08-11T10:47:56;26.30;99.90
18281;DHT22;9266;51.132;17.062;2022-08-11T10:50:25;26.30;99.90
18281;DHT22;9266;51.132;17.062;2022-08-11T10:53:25;26.10;99.90
18281;DHT22;9266;51.132;17.062;2022-08-11T10:56:10;24.90;99.90
18281;DHT22;9266;51.132;17.062;2022-08-11T10:58:56;24.90;99.90
18281;DHT22;9266;51.132;17.062;2022-08-11T11:01:26;24.90;99.90
18281;DHT22;9266;51.132;17.062;2022-08-11T11:03:57;24.90;99.90
18281;DHT22;9266;51.132;17.062;2022-08-11T11:06:28;25.20;99.90
18281;DHT22;9266;51.132;17.062;2022-08-11T11:09:03;25.40;99.90
18281;DHT22;9266;51.132;17.062;2022-08-11T11:11:35;25.70;99.90
18281;DHT22;9266;51.132;17.062;2022-08-11T11:14:21;25.80;99.90
18281;DHT22;9266;51.132;17.062;2022-08-11T11:17:10;25.60;99.90
18281;DHT22;9266;51.132;17.062;2022-08-11T11:19:58;25.50;99.90
18281;DHT22;9266;51.132;17.062;2022-08-11T11:22:28;25.30;99.90
18281;DHT22;9266;51.132;17.062;2022-08-11T11:25:19;25.00;99.90
18281;DHT22;9266;51.132;17.062;2022-08-11T11:31:04;24.80;99.90
18281;DHT22;9266;51.132;17.062;2022-08-11T11:33:49;25.30;99.90
18281;DHT22;9266;51.132;17.062;2022-08-11T11:36:25;25.50;99.90
18281;DHT22;9266;51.132;17.062;2022-08-11T11:38:54;25.60;99.90
18281;DHT22;9266;51.132;17.062;2022-08-11T11:41:23;25.80;99.90
18281;DHT22;9266;51.132;17.062;2022-08-11T11:43:51;25.30;99.90
18281;DHT22;9266;51.132;17.062;2022-08-11T11:46:19;25.60;99.90
18281;DHT22;9266;51.132;17.062;2022-08-11T11:48:47;25.50;99.90
18281;DHT22;9266;51.132;17.062;2022-08-11T11:51:14;26.00;99.90
18281;DHT22;9266;51.132;17.062;2022-08-11T11:53:42;26.10;99.90
18281;DHT22;9266;51.132;17.062;2022-08-11T11:56:11;26.20;99.90
18281;DHT22;9266;51.132;17.062;2022-08-11T11:58:40;26.20;99.90
18281;DHT22;9266;51.132;17.062;2022-08-11T12:01:25;26.10;99.90
18281;DHT22;9266;51.132;17.062;2022-08-11T12:03:54;26.20;99.90
18281;DHT22;9266;51.132;17.062;2022-08-11T12:06:23;26.20;99.90
18281;DHT22;9266;51.132;17.062;2022-08-11T12:08:53;26.20;99.90
18281;DHT22;9266;51.132;17.062;2022-08-11T12:11:23;25.90;99.90
18281;DHT22;9266;51.132;17.062;2022-08-11T12:14:09;25.50;99.90
18281;DHT22;9266;51.132;17.062;2022-08-11T12:16:39;25.40;99.90
18281;DHT22;9266;51.132;17.062;2022-08-11T12:19:09;25.50;99.90
18281;DHT22;9266;51.132;17.062;2022-08-11T12:21:38;25.20;81.60
18281;DHT22;9266;51.132;17.062;2022-08-11T12:24:26;25.60;99.90
18281;DHT22;9266;51.132;17.062;2022-08-11T12:27:12;26.00;99.90
18281;DHT22;9266;51.132;17.062;2022-08-11T12:29:50;26.20;99.90
18281;DHT22;9266;51.132;17.062;2022-08-11T12:32:19;26.40;99.90
18281;DHT22;9266;51.132;17.062;2022-08-11T12:34:47;26.50;99.90
18281;DHT22;9266;51.132;17.062;2022-08-11T12:37:18;26.60;99.90
18281;DHT22;9266;51.132;17.062;2022-08-11T12:39:49;27.00;99.90
18281;DHT22;9266;51.132;17.062;2022-08-11T12:42:36;27.30;99.90
18281;DHT22;9266;51.132;17.062;2022-08-11T12:45:25;26.60;99.90
18281;DHT22;9266;51.132;17.062;2022-08-11T12:48:06;26.20;99.90
18281;DHT22;9266;51.132;17.062;2022-08-11T12:50:55;25.60;99.90
18281;DHT22;9266;51.132;17.062;2022-08-11T12:53:50;25.50;83.00
18281;DHT22;9266;51.132;17.062;2022-08-11T12:56:18;23.20;89.60
18281;DHT22;9266;51.132;17.062;2022-08-11T12:59:07;25.10;57.50
18281;DHT22;9266;51.132;17.062;2022-08-11T13:01:53;25.20;95.70
18281;DHT22;9266;51.132;17.062;2022-08-11T13:04:38;25.20;46.70
18281;DHT22;9266;51.132;17.062;2022-08-11T13:07:26;25.40;90.10
18281;DHT22;9266;51.132;17.062;2022-08-11T13:09:54;25.80;99.90
18281;DHT22;9266;51.132;17.062;2022-08-11T13:12:22;26.00;94.80
18281;DHT22;9266;51.132;17.062;2022-08-11T13:15:13;25.80;92.90
18281;DHT22;9266;51.132;17.062;2022-08-11T13:17:40;25.50;34.40
18281;DHT22;9266;51.132;17.062;2022-08-11T13:20:09;25.40;7.20
18281;DHT22;9266;51.132;17.062;2022-08-11T13:22:38;25.80;30.70
18281;DHT22;9266;51.132;17.062;2022-08-11T13:25:11;25.80;53.20
18281;DHT22;9266;51.132;17.062;2022-08-11T13:27:39;25.90;32.20
18281;DHT22;9266;51.132;17.062;2022-08-11T13:30:07;26.00;77.00
18281;DHT22;9266;51.132;17.062;2022-08-11T13:32:53;26.10;71.40
18281;DHT22;9266;51.132;17.062;2022-08-11T13:35:21;25.80;52.50
18281;DHT22;9266;51.132;17.062;2022-08-11T13:37:50;26.00;67.20
18281;DHT22;9266;51.132;17.062;2022-08-11T13:40:19;26.00;82.20
18281;DHT22;9266;51.132;17.062;2022-08-11T13:42:47;26.00;77.40
18281;DHT22;9266;51.132;17.062;2022-08-11T13:45:15;25.90;87.10
18281;DHT22;9266;51.132;17.062;2022-08-11T13:47:43;26.00;65.00
18281;DHT22;9266;51.132;17.062;2022-08-11T13:50:14;26.20;86.60
18281;DHT22;9266;51.132;17.062;2022-08-11T13:52:41;26.20;69.90
18281;DHT22;9266;51.132;17.062;2022-08-11T13:55:10;26.40;98.90
18281;DHT22;9266;51.132;17.062;2022-08-11T13:57:49;26.40;99.90
18281;DHT22;9266;51.132;17.062;2022-08-11T14:00:18;26.40;60.30
18281;DHT22;9266;51.132;17.062;2022-08-11T14:02:48;26.30;74.90
18281;DHT22;9266;51.132;17.062;2022-08-11T14:05:23;26.00;30.80
18281;DHT22;9266;51.132;17.062;2022-08-11T14:07:52;25.80;22.90
18281;DHT22;9266;51.132;17.062;2022-08-11T14:10:23;25.70;36.40
18281;DHT22;9266;51.132;17.062;2022-08-11T14:12:58;25.60;5.20
18281;DHT22;9266;51.132;17.062;2022-08-11T14:15:44;25.70;26.00
18281;DHT22;9266;51.132;17.062;2022-08-11T14:18:17;25.70;21.80
18281;DHT22;9266;51.132;17.062;2022-08-11T14:20:51;25.60;21.90
18281;DHT22;9266;51.132;17.062;2022-08-11T14:23:38;25.80;1.60
18281;DHT22;9266;51.132;17.062;2022-08-11T14:26:08;26.00;28.90
18281;DHT22;9266;51.132;17.062;2022-08-11T14:28:59;26.00;1.00
18281;DHT22;9266;51.132;17.062;2022-08-11T14:31:29;25.80;26.40
18281;DHT22;9266;51.132;17.062;2022-08-11T14:34:00;26.00;19.00
18281;DHT22;9266;51.132;17.062;2022-08-11T14:36:31;26.00;1.00
18281;DHT22;9266;51.132;17.062;2022-08-11T14:39:02;26.20;67.50
18281;DHT22;9266;51.132;17.062;2022-08-11T14:41:30;26.40;21.90
18281;DHT22;9266;51.132;17.062;2022-08-11T14:44:16;28.90;68.40
18281;DHT22;9266;51.132;17.062;2022-08-11T14:47:01;26.70;52.80
18281;DHT22;9266;51.132;17.062;2022-08-11T14:49:34;26.50;67.60
18281;DHT22;9266;51.132;17.062;2022-08-11T14:52:08;27.10;84.90
18281;DHT22;9266;51.132;17.062;2022-08-11T14:54:36;26.20;14.60
18281;DHT22;9266;51.132;17.062;2022-08-11T14:57:22;25.90;42.30
18281;DHT22;9266;51.132;17.062;2022-08-11T14:59:54;25.70;7.00
18281;DHT22;9266;51.132;17.062;2022-08-11T15:02:23;25.50;1.00
18281;DHT22;9266;51.132;17.062;2022-08-11T15:05:08;25.40;1.00
18281;DHT22;9266;51.132;17.062;2022-08-11T15:07:37;25.20;1.00
18281;DHT22;9266;51.132;17.062;2022-08-11T15:10:07;25.20;1.00
18281;DHT22;9266;51.132;17.062;2022-08-11T15:12:38;25.40;1.00
18281;DHT22;9266;51.132;17.062;2022-08-11T15:15:08;25.60;1.00
18281;DHT22;9266;51.132;17.062;2022-08-11T15:17:54;25.80;24.20
18281;DHT22;9266;51.132;17.062;2022-08-11T15:20:24;25.90;61.00
18281;DHT22;9266;51.132;17.062;2022-08-11T15:23:10;26.10;70.70
18281;DHT22;9266;51.132;17.062;2022-08-11T15:25:59;26.10;28.60
18281;DHT22;9266;51.132;17.062;2022-08-11T15:28:30;26.20;26.10
18281;DHT22;9266;51.132;17.062;2022-08-11T15:31:19;26.40;1.00
18281;DHT22;9266;51.132;17.062;2022-08-11T15:34:04;26.40;17.00
18281;DHT22;9266;51.132;17.062;2022-08-11T15:36:54;26.00;19.50
18281;DHT22;9266;51.132;17.062;2022-08-11T15:39:46;26.00;12.30
18281;DHT22;9266;51.132;17.062;2022-08-11T15:42:29;25.80;1.00
18281;DHT22;9266;51.132;17.062;2022-08-11T15:45:19;25.80;12.90
18281;DHT22;9266;51.132;17.062;2022-08-11T15:48:08;25.70;1.00
18281;DHT22;9266;51.132;17.062;2022-08-11T15:50:39;25.40;1.00
18281;DHT22;9266;51.132;17.062;2022-08-11T15:53:09;25.30;1.00
18281;DHT22;9266;51.132;17.062;2022-08-11T15:55:39;25.40;1.00
18281;DHT22;9266;51.132;17.062;2022-08-11T15:58:09;25.50;1.00
18281;DHT22;9266;51.132;17.062;2022-08-11T16:01:05;25.50;1.00
18281;DHT22;9266;51.132;17.062;2022-08-11T16:03:53;25.60;1.00
18281;DHT22;9266;51.132;17.062;2022-08-11T16:06:41;25.60;1.00
18281;DHT22;9266;51.132;17.062;2022-08-11T16:09:13;25.50;1.00
18281;DHT22;9266;51.132;17.062;2022-08-11T16:11:43;25.50;1.00
18281;DHT22;9266;51.132;17.062;2022-08-11T16:14:13;25.50;1.00
18281;DHT22;9266;51.132;17.062;2022-08-11T16:16:59;25.50;1.00
18281;DHT22;9266;51.132;17.062;2022-08-11T16:19:28;25.50;1.00
18281;DHT22;9266;51.132;17.062;2022-08-11T16:22:02;25.50;1.00
18281;DHT22;9266;51.132;17.062;2022-08-11T16:24:33;25.60;1.00
18281;DHT22;9266;51.132;17.062;2022-08-11T16:27:03;25.60;1.00
18281;DHT22;9266;51.132;17.062;2022-08-11T16:29:32;25.50;1.00
18281;DHT22;9266;51.132;17.062;2022-08-11T16:32:04;25.50;1.00
18281;DHT22;9266;51.132;17.062;2022-08-11T16:34:49;25.50;1.00
18281;DHT22;9266;51.132;17.062;2022-08-11T16:37:35;25.40;1.00
18281;DHT22;9266;51.132;17.062;2022-08-11T16:40:21;25.40;1.00
18281;DHT22;9266;51.132;17.062;2022-08-11T16:42:51;25.40;1.00
18281;DHT22;9266;51.132;17.062;2022-08-11T16:45:38;25.30;1.00
18281;DHT22;9266;51.132;17.062;2022-08-11T16:48:26;26.30;1.00
18281;DHT22;9266;51.132;17.062;2022-08-11T16:50:55;25.40;1.00
18281;DHT22;9266;51.132;17.062;2022-08-11T16:53:25;25.40;1.00
18281;DHT22;9266;51.132;17.062;2022-08-11T16:55:54;25.30;1.00
18281;DHT22;9266;51.132;17.062;2022-08-11T16:58:23;25.30;1.00
18281;DHT22;9266;51.132;17.062;2022-08-11T17:01:08;25.30;1.00
18281;DHT22;9266;51.132;17.062;2022-08-11T17:03:42;25.40;1.00
18281;DHT22;9266;51.132;17.062;2022-08-11T17:06:28;25.40;1.00
18281;DHT22;9266;51.132;17.062;2022-08-11T17:09:16;25.40;1.00
18281;DHT22;9266;51.132;17.062;2022-08-11T17:12:06;25.40;1.00
18281;DHT22;9266;51.132;17.062;2022-08-11T17:14:55;24.80;1.00
18281;DHT22;9266;51.132;17.062;2022-08-11T17:17:27;24.30;1.00
18281;DHT22;9266;51.132;17.062;2022-08-11T17:20:00;24.00;1.00
18281;DHT22;9266;51.132;17.062;2022-08-11T17:22:29;23.70;1.00
18281;DHT22;9266;51.132;17.062;2022-08-11T17:25:15;23.50;1.00
18281;DHT22;9266;51.132;17.062;2022-08-11T17:27:44;23.30;1.00
18281;DHT22;9266;51.132;17.062;2022-08-11T17:30:13;24.90;1.00
18281;DHT22;9266;51.132;17.062;2022-08-11T17:32:46;22.70;1.00
18281;DHT22;9266;51.132;17.062;2022-08-11T17:35:33;22.50;1.00
18281;DHT22;9266;51.132;17.062;2022-08-11T17:38:05;22.40;1.00
18281;DHT22;9266;51.132;17.062;2022-08-11T17:40:35;22.40;1.00
18281;DHT22;9266;51.132;17.062;2022-08-11T17:43:06;22.40;1.00
18281;DHT22;9266;51.132;17.062;2022-08-11T17:45:54;22.20;1.00
18281;DHT22;9266;51.132;17.062;2022-08-11T17:48:41;22.20;1.00
18281;DHT22;9266;51.132;17.062;2022-08-11T17:51:11;22.10;1.00
18281;DHT22;9266;51.132;17.062;2022-08-11T17:53:59;22.00;1.00
18281;DHT22;9266;51.132;17.062;2022-08-11T17:56:45;22.00;1.00
18281;DHT22;9266;51.132;17.062;2022-08-11T17:59:31;21.90;1.00
18281;DHT22;9266;51.132;17.062;2022-08-11T18:02:21;21.80;1.00
18281;DHT22;9266;51.132;17.062;2022-08-11T18:05:08;21.70;1.00
18281;DHT22;9266;51.132;17.062;2022-08-11T18:07:37;21.70;1.00
18281;DHT22;9266;51.132;17.062;2022-08-11T18:10:22;21.70;1.00
18281;DHT22;9266;51.132;17.062;2022-08-11T18:13:08;21.70;13.10
18281;DHT22;9266;51.132;17.062;2022-08-11T18:15:54;21.70;1.00
18281;DHT22;9266;51.132;17.062;2022-08-11T18:18:40;21.50;1.00
18281;DHT22;9266;51.132;17.062;2022-08-11T18:21:27;21.60;14.00
18281;DHT22;9266;51.132;17.062;2022-08-11T18:24:16;21.50;20.10
18281;DHT22;9266;51.132;17.062;2022-08-11T18:27:03;21.50;42.90
18281;DHT22;9266;51.132;17.062;2022-08-11T18:29:49;21.50;27.00
18281;DHT22;9266;51.132;17.062;2022-08-11T18:32:36;21.40;73.10
18281;DHT22;9266;51.132;17.062;2022-08-11T18:35:25;21.40;94.80
18281;DHT22;9266;51.132;17.062;2022-08-11T18:38:12;21.40;81.80
18281;DHT22;9266;51.132;17.062;2022-08-11T18:41:01;21.30;93.20
18281;DHT22;9266;51.132;17.062;2022-08-11T18:43:47;21.30;91.70
18281;DHT22;9266;51.132;17.062;2022-08-11T18:46:34;21.30;84.90
18281;DHT22;9266;51.132;17.062;2022-08-11T18:49:23;21.20;99.90
18281;DHT22;9266;51.132;17.062;2022-08-11T18:52:10;21.20;99.90
18281;DHT22;9266;51.132;17.062;2022-08-11T18:54:58;21.10;99.90
18281;DHT22;9266;51.132;17.062;2022-08-11T18:57:46;21.20;99.90
18281;DHT22;9266;51.132;17.062;2022-08-11T19:00:37;21.20;99.90
18281;DHT22;9266;51.132;17.062;2022-08-11T19:03:24;21.10;99.90
18281;DHT22;9266;51.132;17.062;2022-08-11T19:06:11;21.10;99.90
18281;DHT22;9266;51.132;17.062;2022-08-11T19:08:59;21.10;99.90
18281;DHT22;9266;51.132;17.062;2022-08-11T19:11:45;21.10;99.90
18281;DHT22;9266;51.132;17.062;2022-08-11T19:14:32;21.10;99.90
18281;DHT22;9266;51.132;17.062;2022-08-11T19:17:19;21.20;99.90
18281;DHT22;9266;51.132;17.062;2022-08-11T19:20:06;21.10;99.90
18281;DHT22;9266;51.132;17.062;2022-08-11T19:22:54;21.00;99.90
18281;DHT22;9266;51.132;17.062;2022-08-11T19:25:42;20.90;99.90
18281;DHT22;9266;51.132;17.062;2022-08-11T19:28:28;20.90;99.90
18281;DHT22;9266;51.132;17.062;2022-08-11T19:31:14;20.80;99.90
18281;DHT22;9266;51.132;17.062;2022-08-11T19:33:58;20.80;99.90
18281;DHT22;9266;51.132;17.062;2022-08-11T19:36:44;20.70;99.90
18281;DHT22;9266;51.132;17.062;2022-08-11T19:39:30;20.60;99.90
18281;DHT22;9266;51.132;17.062;2022-08-11T19:42:16;20.50;99.90
18281;DHT22;9266;51.132;17.062;2022-08-11T19:45:02;20.30;99.90
18281;DHT22;9266;51.132;17.062;2022-08-11T19:47:47;20.20;99.90
18281;DHT22;9266;51.132;17.062;2022-08-11T19:50:33;20.10;99.90
18281;DHT22;9266;51.132;17.062;2022-08-11T19:53:19;20.10;99.90
18281;DHT22;9266;51.132;17.062;2022-08-11T19:56:05;20.00;99.90
18281;DHT22;9266;51.132;17.062;2022-08-11T19:58:52;19.80;1.00
18281;DHT22;9266;51.132;17.062;2022-08-11T20:01:39;19.80;1.00
18281;DHT22;9266;51.132;17.062;2022-08-11T20:04:23;21.20;1.00
18281;DHT22;9266;51.132;17.062;2022-08-11T20:07:10;19.70;1.00
18281;DHT22;9266;51.132;17.062;2022-08-11T20:09:56;19.50;1.00
18281;DHT22;9266;51.132;17.062;2022-08-11T20:12:42;19.30;44.60
18281;DHT22;9266;51.132;17.062;2022-08-11T20:15:28;19.10;99.90
18281;DHT22;9266;51.132;17.062;2022-08-11T20:18:14;19.00;99.90
18281;DHT22;9266;51.132;17.062;2022-08-11T20:20:59;18.80;1.00
18281;DHT22;9266;51.132;17.062;2022-08-11T20:23:46;18.70;1.00
18281;DHT22;9266;51.132;17.062;2022-08-11T20:26:32;18.70;1.00
18281;DHT22;9266;51.132;17.062;2022-08-11T20:29:18;18.70;1.00
18281;DHT22;9266;51.132;17.062;2022-08-11T20:32:17;18.70;1.00
18281;DHT22;9266;51.132;17.062;2022-08-11T20:35:02;18.60;1.00
18281;DHT22;9266;51.132;17.062;2022-08-11T20:37:49;18.60;1.00
18281;DHT22;9266;51.132;17.062;2022-08-11T20:40:39;18.60;1.00
18281;DHT22;9266;51.132;17.062;2022-08-11T20:43:25;18.50;1.00
18281;DHT22;9266;51.132;17.062;2022-08-11T20:46:12;18.50;1.00
18281;DHT22;9266;51.132;17.062;2022-08-11T20:49:01;18.40;1.00
18281;DHT22;9266;51.132;17.062;2022-08-11T20:51:46;18.40;82.70
18281;DHT22;9266;51.132;17.062;2022-08-11T20:54:33;18.50;67.80
18281;DHT22;9266;51.132;17.062;2022-08-11T20:57:18;18.40;7.10
18281;DHT22;9266;51.132;17.062;2022-08-11T21:00:04;18.40;1.00
18281;DHT22;9266;51.132;17.062;2022-08-11T21:02:50;18.40;10.00
18281;DHT22;9266;51.132;17.062;2022-08-11T21:05:40;18.40;5.90
18281;DHT22;9266;51.132;17.062;2022-08-11T21:08:28;18.30;1.00
18281;DHT22;9266;51.132;17.062;2022-08-11T21:11:20;18.40;1.00
18281;DHT22;9266;51.132;17.062;2022-08-11T21:14:10;18.30;1.00
18281;DHT22;9266;51.132;17.062;2022-08-11T21:16:59;18.30;8.60
18281;DHT22;9266;51.132;17.062;2022-08-11T21:19:46;18.30;99.90
18281;DHT22;9266;51.132;17.062;2022-08-11T21:22:36;18.20;99.90
18281;DHT22;9266;51.132;17.062;2022-08-11T21:25:23;18.20;99.90
18281;DHT22;9266;51.132;17.062;2022-08-11T21:28:11;18.10;1.00
18281;DHT22;9266;51.132;17.062;2022-08-11T21:30:57;18.00;1.00
18281;DHT22;9266;51.132;17.062;2022-08-11T21:33:43;17.90;16.50
18281;DHT22;9266;51.132;17.062;2022-08-11T21:36:28;18.00;99.90
18281;DHT22;9266;51.132;17.062;2022-08-11T21:39:18;17.80;99.90
18281;DHT22;9266;51.132;17.062;2022-08-11T21:42:06;17.70;1.00
18281;DHT22;9266;51.132;17.062;2022-08-11T21:44:53;17.60;1.00
18281;DHT22;9266;51.132;17.062;2022-08-11T21:47:39;17.50;1.00
18281;DHT22;9266;51.132;17.062;2022-08-11T21:50:25;17.50;1.00
18281;DHT22;9266;51.132;17.062;2022-08-11T21:53:10;17.40;1.00
18281;DHT22;9266;51.132;17.062;2022-08-11T21:55:58;17.30;99.90
18281;DHT22;9266;51.132;17.062;2022-08-11T21:58:44;17.40;1.00
18281;DHT22;9266;51.132;17.062;2022-08-11T22:01:30;17.40;1.00
18281;DHT22;9266;51.132;17.062;2022-08-11T22:07:01;17.30;61.00
18281;DHT22;9266;51.132;17.062;2022-08-11T22:09:47;17.20;99.90
18281;DHT22;9266;51.132;17.062;2022-08-11T22:12:33;17.00;1.00
18281;DHT22;9266;51.132;17.062;2022-08-11T22:15:18;16.80;99.90
18281;DHT22;9266;51.132;17.062;2022-08-11T22:18:02;16.80;1.00
18281;DHT22;9266;51.132;17.062;2022-08-11T22:20:47;16.90;99.90
18281;DHT22;9266;51.132;17.062;2022-08-11T22:23:36;16.90;99.90
18281;DHT22;9266;51.132;17.062;2022-08-11T22:26:23;16.70;99.90
18281;DHT22;9266;51.132;17.062;2022-08-11T22:29:10;16.50;1.00
18281;DHT22;9266;51.132;17.062;2022-08-11T22:31:56;16.40;99.90
18281;DHT22;9266;51.132;17.062;2022-08-11T22:34:42;16.40;99.90
18281;DHT22;9266;51.132;17.062;2022-08-11T22:37:28;16.20;1.00
18281;DHT22;9266;51.132;17.062;2022-08-11T22:40:14;16.30;1.00
18281;DHT22;9266;51.132;17.062;2022-08-11T22:42:58;16.30;1.00
18281;DHT22;9266;51.132;17.062;2022-08-11T22:45:44;16.20;10.70
18281;DHT22;9266;51.132;17.062;2022-08-11T22:48:29;16.20;99.90
18281;DHT22;9266;51.132;17.062;2022-08-11T22:51:16;16.30;1.00
18281;DHT22;9266;51.132;17.062;2022-08-11T22:54:02;16.50;1.00
18281;DHT22;9266;51.132;17.062;2022-08-11T22:56:47;16.70;99.90
18281;DHT22;9266;51.132;17.062;2022-08-11T22:59:34;16.60;1.00
18281;DHT22;9266;51.132;17.062;2022-08-11T23:02:20;16.40;1.00
18281;DHT22;9266;51.132;17.062;2022-08-11T23:05:07;16.40;99.90
18281;DHT22;9266;51.132;17.062;2022-08-11T23:07:52;16.20;99.90
18281;DHT22;9266;51.132;17.062;2022-08-11T23:10:38;16.20;1.00
18281;DHT22;9266;51.132;17.062;2022-08-11T23:13:23;16.10;1.00
18281;DHT22;9266;51.132;17.062;2022-08-11T23:16:07;16.00;1.00
18281;DHT22;9266;51.132;17.062;2022-08-11T23:18:53;16.00;1.00
18281;DHT22;9266;51.132;17.062;2022-08-11T23:21:39;16.00;14.80
18281;DHT22;9266;51.132;17.062;2022-08-11T23:24:25;16.00;1.00
18281;DHT22;9266;51.132;17.062;2022-08-11T23:27:10;15.90;1.00
18281;DHT22;9266;51.132;17.062;2022-08-11T23:29:56;15.90;1.00
18281;DHT22;9266;51.132;17.062;2022-08-11T23:32:44;15.90;1.00
18281;DHT22;9266;51.132;17.062;2022-08-11T23:35:32;15.80;1.00
18281;DHT22;9266;51.132;17.062;2022-08-11T23:38:17;15.70;1.00
18281;DHT22;9266;51.132;17.062;2022-08-11T23:41:03;15.60;16.30
18281;DHT22;9266;51.132;17.062;2022-08-11T23:43:48;15.50;99.90
18281;DHT22;9266;51.132;17.062;2022-08-11T23:46:33;15.40;99.90
18281;DHT22;9266;51.132;17.062;2022-08-11T23:49:18;15.30;1.00
18281;DHT22;9266;51.132;17.062;2022-08-11T23:52:06;15.20;1.00
18281;DHT22;9266;51.132;17.062;2022-08-11T23:57:36;15.20;1.00
